createdAt,value
2022-12-24T00:00:32.620Z,990.2
2022-12-24T00:01:48.908Z,990.3
2022-12-24T00:03:05.214Z,990.2
2022-12-24T00:04:21.485Z,990.3
2022-12-24T00:05:37.803Z,990.3
2022-12-24T00:06:54.095Z,990.3
2022-12-24T00:08:10.371Z,990.3
2022-12-24T00:09:26.687Z,990.3
2022-12-24T00:10:42.949Z,990.4
2022-12-24T00:11:58.265Z,990.4
2022-12-24T00:13:14.563Z,990.4
2022-12-24T00:14:30.887Z,990.4
2022-12-24T00:15:47.146Z,990.5
2022-12-24T00:17:03.445Z,990.5
2022-12-24T00:18:19.753Z,990.5
2022-12-24T00:19:36.047Z,990.5
2022-12-24T00:20:52.315Z,990.5
2022-12-24T00:22:08.633Z,990.5
2022-12-24T00:23:24.927Z,990.6
2022-12-24T00:24:41.208Z,990.6
2022-12-24T00:25:57.509Z,990.7
2022-12-24T00:27:13.797Z,990.7
2022-12-24T00:28:29.117Z,990.8
2022-12-24T00:29:45.413Z,990.7
2022-12-24T00:31:01.691Z,990.6
2022-12-24T00:32:17.975Z,990.6
2022-12-24T00:33:34.270Z,990.6
2022-12-24T00:34:50.592Z,990.6
2022-12-24T00:36:06.857Z,990.6
2022-12-24T00:37:23.188Z,990.6
2022-12-24T00:38:39.476Z,990.7
2022-12-24T00:39:55.772Z,990.6
2022-12-24T00:41:12.063Z,990.7
2022-12-24T00:42:28.363Z,990.6
2022-12-24T00:43:44.626Z,990.7
2022-12-24T00:44:59.965Z,990.7
2022-12-24T00:46:16.225Z,990.8
2022-12-24T00:47:32.542Z,990.8
2022-12-24T00:48:48.817Z,990.8
2022-12-24T00:50:05.109Z,990.8
2022-12-24T00:51:21.407Z,990.8
2022-12-24T00:52:37.732Z,990.8
2022-12-24T00:53:53.990Z,990.8
2022-12-24T00:55:10.296Z,991
2022-12-24T00:56:26.593Z,991
2022-12-24T00:57:42.870Z,991
2022-12-24T00:58:59.192Z,991.1
2022-12-24T01:00:15.489Z,991
2022-12-24T01:01:30.794Z,991.1
2022-12-24T01:02:47.062Z,991.1
2022-12-24T01:04:03.359Z,991.1
2022-12-24T01:05:19.656Z,991.1
2022-12-24T01:06:35.983Z,991.1
2022-12-24T01:07:52.271Z,991.1
2022-12-24T01:09:08.531Z,991.1
2022-12-24T01:10:24.825Z,991.1
2022-12-24T01:11:41.131Z,991.2
2022-12-24T01:12:57.445Z,991.2
2022-12-24T01:14:13.742Z,991.2
2022-12-24T01:15:30.026Z,991.2
2022-12-24T01:16:46.317Z,991.3
2022-12-24T01:18:01.608Z,991.3
2022-12-24T01:19:17.932Z,991.3
2022-12-24T01:20:34.191Z,991.3
2022-12-24T01:21:50.487Z,991.3
2022-12-24T01:23:06.815Z,991.4
2022-12-24T01:24:23.079Z,991.4
2022-12-24T01:25:39.396Z,991.4
2022-12-24T01:26:55.692Z,991.5
2022-12-24T01:28:11.960Z,991.5
2022-12-24T01:29:28.247Z,991.5
2022-12-24T01:30:44.555Z,991.5
2022-12-24T01:32:00.845Z,991.5
2022-12-24T01:33:17.140Z,991.5
2022-12-24T01:34:32.466Z,991.5
2022-12-24T01:35:48.759Z,991.5
2022-12-24T01:37:05.032Z,991.4
2022-12-24T01:38:21.351Z,991.4
2022-12-24T01:39:37.645Z,991.5
2022-12-24T01:40:53.928Z,991.5
2022-12-24T01:42:10.206Z,991.5
2022-12-24T01:43:26.525Z,991.5
2022-12-24T01:44:42.825Z,991.5
2022-12-24T01:45:59.130Z,991.6
2022-12-24T01:47:15.383Z,991.6
2022-12-24T01:48:31.699Z,991.5
2022-12-24T01:49:48.000Z,991.5
2022-12-24T01:51:03.313Z,991.6
2022-12-24T01:52:19.587Z,991.6
2022-12-24T01:53:35.897Z,991.6
2022-12-24T01:54:52.186Z,991.7
2022-12-24T01:56:08.459Z,991.8
2022-12-24T01:57:24.783Z,991.7
2022-12-24T01:58:41.056Z,991.7
2022-12-24T01:59:57.342Z,991.7
2022-12-24T02:01:13.659Z,991.8
2022-12-24T02:02:29.923Z,991.8
2022-12-24T02:03:46.222Z,991.8
2022-12-24T02:05:02.514Z,991.8
2022-12-24T02:06:18.813Z,991.9
2022-12-24T02:07:34.146Z,991.9
2022-12-24T02:08:50.448Z,991.8
2022-12-24T02:10:06.711Z,991.9
2022-12-24T02:11:23.024Z,991.8
2022-12-24T02:12:39.322Z,991.9
2022-12-24T02:13:55.593Z,991.9
2022-12-24T02:15:11.911Z,992
2022-12-24T02:16:28.183Z,991.9
2022-12-24T02:17:44.467Z,992
2022-12-24T02:19:00.780Z,991.9
2022-12-24T02:20:17.080Z,991.9
2022-12-24T02:21:33.358Z,991.9
2022-12-24T02:22:49.653Z,991.9
2022-12-24T02:24:04.957Z,991.9
2022-12-24T02:25:21.252Z,991.9
2022-12-24T02:26:37.566Z,991.9
2022-12-24T02:27:53.835Z,992
2022-12-24T02:29:10.134Z,992
2022-12-24T02:30:26.448Z,992
2022-12-24T02:31:42.756Z,992
2022-12-24T02:32:59.042Z,992
2022-12-24T02:34:15.322Z,992
2022-12-24T02:35:31.627Z,992.1
2022-12-24T02:36:47.906Z,992
2022-12-24T02:38:04.192Z,992.1
2022-12-24T02:39:20.480Z,992.1
2022-12-24T02:40:35.816Z,992.1
2022-12-24T02:41:52.087Z,992
2022-12-24T02:43:08.415Z,992.1
2022-12-24T02:44:24.691Z,992
2022-12-24T02:45:40.992Z,992.1
2022-12-24T02:46:57.265Z,992.1
2022-12-24T02:48:13.557Z,992.1
2022-12-24T02:49:29.859Z,992.1
2022-12-24T02:50:46.155Z,992.2
2022-12-24T02:52:02.440Z,992.1
2022-12-24T02:53:18.752Z,992.2
2022-12-24T02:54:35.020Z,992.2
2022-12-24T02:55:51.342Z,992.2
2022-12-24T02:57:06.637Z,992.2
2022-12-24T02:58:22.925Z,992.2
2022-12-24T02:59:39.221Z,992.2
2022-12-24T03:00:55.516Z,992.2
2022-12-24T03:02:11.806Z,992.2
2022-12-24T03:03:28.118Z,992.2
2022-12-24T03:04:44.398Z,992.3
2022-12-24T03:06:00.710Z,992.2
2022-12-24T03:07:16.985Z,992.3
2022-12-24T03:08:33.287Z,992.3
2022-12-24T03:09:49.569Z,992.3
2022-12-24T03:11:05.878Z,992.3
2022-12-24T03:12:22.158Z,992.2
2022-12-24T03:13:37.476Z,992.3
2022-12-24T03:14:53.769Z,992.3
2022-12-24T03:16:10.054Z,992.3
2022-12-24T03:17:26.362Z,992.4
2022-12-24T03:18:42.659Z,992.4
2022-12-24T03:19:58.931Z,992.4
2022-12-24T03:21:15.241Z,992.4
2022-12-24T03:22:31.529Z,992.4
2022-12-24T03:23:47.836Z,992.4
2022-12-24T03:25:04.123Z,992.6
2022-12-24T03:26:20.409Z,992.5
2022-12-24T03:27:36.718Z,992.5
2022-12-24T03:28:53.005Z,992.5
2022-12-24T03:30:08.300Z,992.5
2022-12-24T03:31:24.605Z,992.6
2022-12-24T03:32:40.891Z,992.6
2022-12-24T03:33:57.195Z,992.7
2022-12-24T03:35:13.482Z,992.7
2022-12-24T03:36:29.773Z,992.7
2022-12-24T03:37:46.067Z,992.7
2022-12-24T03:39:02.367Z,992.7
2022-12-24T03:40:18.665Z,992.8
2022-12-24T03:41:34.958Z,992.8
2022-12-24T03:42:51.253Z,992.8
2022-12-24T03:44:07.549Z,992.8
2022-12-24T03:45:23.841Z,992.7
2022-12-24T03:46:39.152Z,992.8
2022-12-24T03:47:55.448Z,992.9
2022-12-24T03:49:11.727Z,993
2022-12-24T03:50:28.038Z,992.9
2022-12-24T03:51:44.317Z,992.9
2022-12-24T03:53:00.622Z,992.9
2022-12-24T03:54:15.924Z,992.9
2022-12-24T03:55:32.238Z,992.9
2022-12-24T03:56:48.537Z,993
2022-12-24T03:58:04.822Z,993
2022-12-24T03:59:21.118Z,993.1
2022-12-24T04:00:37.408Z,993
2022-12-24T04:01:53.699Z,993.1
2022-12-24T04:03:09.994Z,993.1
2022-12-24T04:04:26.294Z,993.1
2022-12-24T04:05:42.583Z,993.2
2022-12-24T04:06:58.872Z,993.2
2022-12-24T04:08:15.172Z,993.2
2022-12-24T04:09:31.460Z,993.2
2022-12-24T04:10:46.777Z,993.3
2022-12-24T04:12:03.066Z,993.2
2022-12-24T04:13:19.362Z,993.3
2022-12-24T04:14:35.655Z,993.3
2022-12-24T04:15:51.938Z,993.3
2022-12-24T04:17:08.242Z,993.4
2022-12-24T04:18:24.527Z,993.4
2022-12-24T04:19:40.830Z,993.4
2022-12-24T04:20:57.126Z,993.5
2022-12-24T04:22:13.407Z,993.4
2022-12-24T04:23:29.707Z,993.5
2022-12-24T04:24:46.014Z,993.6
2022-12-24T04:26:02.292Z,993.6
2022-12-24T04:27:17.611Z,993.7
2022-12-24T04:28:33.903Z,993.7
2022-12-24T04:29:50.196Z,993.7
2022-12-24T04:31:06.494Z,993.7
2022-12-24T04:32:22.786Z,993.7
2022-12-24T04:33:39.080Z,993.7
2022-12-24T04:34:55.375Z,993.8
2022-12-24T04:36:11.663Z,993.8
2022-12-24T04:37:27.950Z,993.8
2022-12-24T04:38:44.261Z,993.7
2022-12-24T04:40:00.558Z,993.8
2022-12-24T04:41:16.833Z,993.8
2022-12-24T04:42:33.128Z,993.8
2022-12-24T04:43:49.438Z,993.8
2022-12-24T04:45:04.740Z,993.9
2022-12-24T04:46:21.028Z,993.9
2022-12-24T04:47:37.323Z,993.8
2022-12-24T04:48:53.615Z,993.9
2022-12-24T04:50:09.920Z,993.9
2022-12-24T04:51:26.201Z,993.9
2022-12-24T04:52:42.513Z,993.9
2022-12-24T04:53:58.799Z,993.9
2022-12-24T04:55:15.093Z,993.8
2022-12-24T04:56:31.396Z,993.9
2022-12-24T04:57:47.671Z,993.9
2022-12-24T04:59:03.984Z,993.9
2022-12-24T05:00:20.277Z,993.9
2022-12-24T05:01:35.576Z,994
2022-12-24T05:02:51.876Z,994
2022-12-24T05:04:08.168Z,993.9
2022-12-24T05:05:24.460Z,994
2022-12-24T05:06:40.760Z,994
2022-12-24T05:07:57.058Z,994.1
2022-12-24T05:09:13.336Z,994.1
2022-12-24T05:10:29.638Z,994.3
2022-12-24T05:11:45.935Z,994.2
2022-12-24T05:13:02.213Z,994.1
2022-12-24T05:14:18.522Z,994.1
2022-12-24T05:15:34.819Z,994.2
2022-12-24T05:16:51.108Z,994.1
2022-12-24T05:18:06.415Z,994.1
2022-12-24T05:19:22.704Z,994.2
2022-12-24T05:20:38.996Z,994.2
2022-12-24T05:21:55.297Z,994.3
2022-12-24T05:23:11.585Z,994.3
2022-12-24T05:24:27.890Z,994.3
2022-12-24T05:25:44.171Z,994.3
2022-12-24T05:27:00.480Z,994.5
2022-12-24T05:28:16.757Z,994.4
2022-12-24T05:29:33.066Z,994.4
2022-12-24T05:30:49.366Z,994.5
2022-12-24T05:32:05.653Z,994.6
2022-12-24T05:33:21.953Z,994.5
2022-12-24T05:34:37.261Z,994.7
2022-12-24T05:35:53.547Z,994.6
2022-12-24T05:37:09.832Z,994.6
2022-12-24T05:38:26.142Z,994.6
2022-12-24T05:39:42.436Z,994.5
2022-12-24T05:40:58.732Z,994.6
2022-12-24T05:42:15.008Z,994.6
2022-12-24T05:43:31.322Z,994.6
2022-12-24T05:44:47.599Z,994.6
2022-12-24T05:46:03.900Z,994.7
2022-12-24T05:47:20.189Z,994.7
2022-12-24T05:48:36.508Z,994.8
2022-12-24T05:49:52.771Z,994.7
2022-12-24T05:51:08.094Z,994.9
2022-12-24T05:52:24.388Z,994.9
2022-12-24T05:53:40.679Z,994.9
2022-12-24T05:54:56.976Z,995
2022-12-24T05:56:13.268Z,995
2022-12-24T05:57:29.559Z,995.1
2022-12-24T05:58:45.859Z,995.1
2022-12-24T06:00:02.140Z,995.2
2022-12-24T06:01:18.461Z,995.1
2022-12-24T06:02:34.739Z,995.1
2022-12-24T06:03:51.039Z,995.2
2022-12-24T06:05:07.342Z,995.2
2022-12-24T06:06:23.610Z,995.2
2022-12-24T06:07:38.939Z,995.2
2022-12-24T06:08:55.232Z,995.2
2022-12-24T06:10:11.516Z,995.3
2022-12-24T06:11:27.830Z,995.3
2022-12-24T06:12:44.100Z,995.3
2022-12-24T06:14:00.396Z,995.3
2022-12-24T06:15:16.699Z,995.4
2022-12-24T06:16:33.005Z,995.4
2022-12-24T06:17:49.289Z,995.4
2022-12-24T06:19:05.569Z,995.4
2022-12-24T06:20:21.863Z,995.4
2022-12-24T06:21:38.166Z,995.4
2022-12-24T06:22:54.449Z,995.5
2022-12-24T06:24:09.787Z,995.5
2022-12-24T06:25:26.068Z,995.4
2022-12-24T06:26:42.357Z,995.5
2022-12-24T06:27:58.653Z,995.4
2022-12-24T06:29:14.954Z,995.4
2022-12-24T06:30:31.246Z,995.5
2022-12-24T06:31:47.543Z,995.5
2022-12-24T06:33:03.816Z,995.5
2022-12-24T06:34:20.112Z,995.6
2022-12-24T06:35:36.418Z,995.5
2022-12-24T06:36:52.715Z,995.5
2022-12-24T06:38:09.000Z,995.6
2022-12-24T06:39:25.310Z,995.6
2022-12-24T06:40:40.603Z,995.7
2022-12-24T06:41:56.902Z,995.7
2022-12-24T06:43:13.201Z,995.8
2022-12-24T06:44:29.448Z,995.8
2022-12-24T06:45:45.685Z,995.9
2022-12-24T06:47:01.920Z,995.8
2022-12-24T06:48:18.231Z,995.9
2022-12-24T06:49:34.522Z,995.9
2022-12-24T06:50:50.757Z,995.9
2022-12-24T06:52:07.065Z,995.9
2022-12-24T06:53:23.363Z,995.9
2022-12-24T06:54:39.595Z,996
2022-12-24T06:55:55.852Z,995.9
2022-12-24T06:57:11.110Z,996
2022-12-24T06:58:27.355Z,995.9
2022-12-24T06:59:43.590Z,996
2022-12-24T07:00:59.830Z,996
2022-12-24T07:02:16.058Z,996
2022-12-24T07:03:32.307Z,996
2022-12-24T07:04:48.537Z,996
2022-12-24T07:06:04.779Z,996.1
2022-12-24T07:07:21.029Z,996.1
2022-12-24T07:08:37.270Z,996.1
2022-12-24T07:09:53.515Z,996.2
2022-12-24T07:11:09.765Z,996.1
2022-12-24T07:12:25.976Z,996.2
2022-12-24T07:13:41.239Z,996.3
2022-12-24T07:14:57.491Z,996.2
2022-12-24T07:16:13.728Z,996.2
2022-12-24T07:17:29.950Z,996.3
2022-12-24T07:18:46.193Z,996.3
2022-12-24T07:20:02.429Z,996.3
2022-12-24T07:21:18.669Z,996.4
2022-12-24T07:22:34.922Z,996.4
2022-12-24T07:23:51.150Z,996.5
2022-12-24T07:25:07.390Z,996.5
2022-12-24T07:26:23.628Z,996.5
2022-12-24T07:27:39.891Z,996.6
2022-12-24T07:28:56.133Z,996.5
2022-12-24T07:30:11.365Z,996.5
2022-12-24T07:31:27.607Z,996.5
2022-12-24T07:32:43.858Z,996.5
2022-12-24T07:34:00.089Z,996.4
2022-12-24T07:35:16.349Z,996.6
2022-12-24T07:36:32.594Z,996.5
2022-12-24T07:37:48.821Z,996.6
2022-12-24T07:39:05.070Z,996.6
2022-12-24T07:40:21.305Z,996.6
2022-12-24T07:41:37.545Z,996.6
2022-12-24T07:42:53.789Z,996.7
2022-12-24T07:44:10.022Z,996.7
2022-12-24T07:45:26.262Z,996.8
2022-12-24T07:46:41.517Z,996.8
2022-12-24T07:47:57.768Z,996.8
2022-12-24T07:49:13.982Z,996.8
2022-12-24T07:50:30.253Z,996.8
2022-12-24T07:51:46.492Z,996.8
2022-12-24T07:53:02.708Z,996.8
2022-12-24T07:54:18.961Z,996.9
2022-12-24T07:55:35.194Z,997
2022-12-24T07:56:51.450Z,997
2022-12-24T07:58:07.679Z,997
2022-12-24T07:59:23.908Z,997
2022-12-24T08:00:40.143Z,997.1
2022-12-24T08:01:56.384Z,997.1
2022-12-24T08:03:11.660Z,997.1
2022-12-24T08:04:27.881Z,997.1
2022-12-24T08:05:44.131Z,997.1
2022-12-24T08:07:00.373Z,997.2
2022-12-24T08:08:16.613Z,997.3
2022-12-24T08:09:31.874Z,997.1
2022-12-24T08:10:48.107Z,997.2
2022-12-24T08:12:04.366Z,997.2
2022-12-24T08:13:20.583Z,997.2
2022-12-24T08:14:36.841Z,997.3
2022-12-24T08:15:53.073Z,997.3
2022-12-24T08:17:09.309Z,997.3
2022-12-24T08:18:25.566Z,997.3
2022-12-24T08:19:41.791Z,997.3
2022-12-24T08:20:58.023Z,997.3
2022-12-24T08:22:14.283Z,997.3
2022-12-24T08:23:30.521Z,997.3
2022-12-24T08:24:46.763Z,997.4
2022-12-24T08:26:01.996Z,997.4
2022-12-24T08:27:18.244Z,997.5
2022-12-24T08:28:34.500Z,997.4
2022-12-24T08:29:50.721Z,997.5
2022-12-24T08:31:06.961Z,997.4
2022-12-24T08:32:23.199Z,997.5
2022-12-24T08:33:39.453Z,997.5
2022-12-24T08:34:55.677Z,997.6
2022-12-24T08:36:11.930Z,997.5
2022-12-24T08:37:28.156Z,997.6
2022-12-24T08:38:44.429Z,997.6
2022-12-24T08:40:00.652Z,997.6
2022-12-24T08:41:16.885Z,997.7
2022-12-24T08:42:32.143Z,997.7
2022-12-24T08:43:48.377Z,997.7
2022-12-24T08:45:04.645Z,997.8
2022-12-24T08:46:20.861Z,997.8
2022-12-24T08:47:37.107Z,997.8
2022-12-24T08:48:53.352Z,997.8
2022-12-24T08:50:09.599Z,997.8
2022-12-24T08:51:25.835Z,997.8
2022-12-24T08:52:42.079Z,997.8
2022-12-24T08:53:58.310Z,997.9
2022-12-24T08:55:14.574Z,997.9
2022-12-24T08:56:30.810Z,998
2022-12-24T08:57:47.044Z,998
2022-12-24T08:59:03.280Z,998
2022-12-24T09:00:18.538Z,998
2022-12-24T09:01:34.779Z,998
2022-12-24T09:02:51.023Z,998.1
2022-12-24T09:04:07.262Z,998
2022-12-24T09:05:23.495Z,998
2022-12-24T09:06:39.740Z,998.1
2022-12-24T09:07:55.987Z,998.1
2022-12-24T09:09:12.222Z,998.1
2022-12-24T09:10:28.455Z,998.2
2022-12-24T09:11:44.699Z,998.3
2022-12-24T09:13:00.942Z,998.3
2022-12-24T09:14:17.175Z,998.3
2022-12-24T09:15:33.429Z,998.3
2022-12-24T09:16:48.677Z,998.4
2022-12-24T09:18:04.917Z,998.4
2022-12-24T09:19:21.165Z,998.3
2022-12-24T09:20:37.395Z,998.3
2022-12-24T09:21:53.632Z,998.3
2022-12-24T09:23:09.876Z,998.3
2022-12-24T09:24:26.129Z,998.4
2022-12-24T09:25:42.370Z,998.3
2022-12-24T09:26:58.598Z,998.4
2022-12-24T09:28:14.842Z,998.3
2022-12-24T09:29:31.080Z,998.4
2022-12-24T09:30:47.318Z,998.4
2022-12-24T09:32:03.563Z,998.4
2022-12-24T09:33:18.824Z,998.5
2022-12-24T09:34:35.063Z,998.6
2022-12-24T09:35:51.289Z,998.5
2022-12-24T09:37:07.537Z,998.5
2022-12-24T09:38:23.769Z,998.5
2022-12-24T09:39:40.012Z,998.5
2022-12-24T09:40:56.251Z,998.6
2022-12-24T09:42:12.501Z,998.5
2022-12-24T09:43:28.743Z,998.6
2022-12-24T09:44:44.967Z,998.6
2022-12-24T09:46:01.215Z,998.6
2022-12-24T09:47:17.464Z,998.6
2022-12-24T09:48:33.703Z,998.6
2022-12-24T09:49:48.949Z,998.6
2022-12-24T09:51:05.188Z,998.6
2022-12-24T09:52:21.422Z,998.6
2022-12-24T09:53:37.664Z,998.6
2022-12-24T09:54:53.923Z,998.7
2022-12-24T09:56:10.148Z,998.6
2022-12-24T09:57:26.396Z,998.6
2022-12-24T09:58:42.632Z,998.7
2022-12-24T09:59:58.879Z,998.7
2022-12-24T10:01:15.104Z,998.7
2022-12-24T10:02:31.344Z,998.7
2022-12-24T10:03:47.584Z,998.7
2022-12-24T10:05:03.827Z,998.7
2022-12-24T10:06:19.082Z,998.7
2022-12-24T10:07:35.333Z,998.8
2022-12-24T10:08:51.576Z,998.8
2022-12-24T10:10:07.799Z,998.8
2022-12-24T10:11:24.045Z,998.8
2022-12-24T10:12:40.289Z,998.8
2022-12-24T10:13:56.524Z,998.9
2022-12-24T10:15:12.762Z,998.8
2022-12-24T10:16:28.998Z,998.8
2022-12-24T10:17:45.245Z,998.8
2022-12-24T10:19:01.492Z,998.8
2022-12-24T10:20:17.722Z,998.8
2022-12-24T10:21:33.966Z,998.8
2022-12-24T10:22:49.230Z,998.8
2022-12-24T10:24:05.461Z,998.8
2022-12-24T10:25:21.706Z,998.7
2022-12-24T10:26:37.943Z,998.7
2022-12-24T10:27:54.176Z,998.7
2022-12-24T10:29:10.416Z,998.7
2022-12-24T10:30:26.657Z,998.7
2022-12-24T10:31:42.901Z,998.8
2022-12-24T10:32:59.150Z,998.9
2022-12-24T10:34:15.383Z,998.8
2022-12-24T10:35:31.617Z,998.8
2022-12-24T10:36:47.871Z,998.9
2022-12-24T10:38:04.103Z,998.9
2022-12-24T10:39:19.368Z,998.9
2022-12-24T10:40:35.596Z,998.9
2022-12-24T10:41:51.838Z,998.9
2022-12-24T10:43:08.078Z,998.9
2022-12-24T10:44:24.316Z,999
2022-12-24T10:45:40.551Z,999
2022-12-24T10:46:56.790Z,999
2022-12-24T10:48:13.033Z,999
2022-12-24T10:49:29.282Z,999
2022-12-24T10:50:45.524Z,999
2022-12-24T10:52:01.758Z,999
2022-12-24T10:53:17.992Z,999
2022-12-24T10:54:34.233Z,999.1
2022-12-24T10:55:49.493Z,999
2022-12-24T10:57:05.737Z,999.1
2022-12-24T10:58:21.972Z,999.1
2022-12-24T10:59:38.207Z,999.2
2022-12-24T11:00:54.444Z,999.2
2022-12-24T11:02:10.680Z,999.1
2022-12-24T11:03:26.929Z,999.1
2022-12-24T11:04:43.161Z,999.3
2022-12-24T11:05:59.400Z,999.2
2022-12-24T11:07:15.654Z,999.2
2022-12-24T11:08:31.880Z,999.2
2022-12-24T11:09:48.125Z,999.3
2022-12-24T11:11:04.361Z,999.3
2022-12-24T11:12:19.630Z,999.3
2022-12-24T11:13:35.865Z,999.3
2022-12-24T11:14:52.090Z,999.4
2022-12-24T11:16:08.342Z,999.4
2022-12-24T11:17:24.573Z,999.3
2022-12-24T11:18:40.807Z,999.3
2022-12-24T11:19:57.060Z,999.3
2022-12-24T11:21:13.285Z,999.4
2022-12-24T11:22:29.542Z,999.3
2022-12-24T11:23:45.765Z,999.3
2022-12-24T11:25:02.022Z,999.3
2022-12-24T11:26:18.248Z,999.4
2022-12-24T11:27:34.492Z,999.4
2022-12-24T11:28:49.736Z,999.3
2022-12-24T11:30:05.994Z,999.3
2022-12-24T11:31:22.233Z,999.4
2022-12-24T11:32:38.458Z,999.3
2022-12-24T11:33:54.706Z,999.3
2022-12-24T11:35:10.937Z,999.3
2022-12-24T11:36:27.188Z,999.4
2022-12-24T11:37:43.422Z,999.3
2022-12-24T11:38:59.664Z,999.3
2022-12-24T11:40:15.898Z,999.3
2022-12-24T11:41:32.133Z,999.3
2022-12-24T11:42:48.382Z,999.3
2022-12-24T11:44:04.622Z,999.3
2022-12-24T11:45:19.880Z,999.3
2022-12-24T11:46:36.124Z,999.3
2022-12-24T11:47:52.364Z,999.3
2022-12-24T11:49:08.597Z,999.3
2022-12-24T11:50:24.848Z,999.3
2022-12-24T11:51:41.078Z,999.4
2022-12-24T11:52:57.310Z,999.3
2022-12-24T11:54:13.548Z,999.3
2022-12-24T11:55:29.799Z,999.3
2022-12-24T11:56:46.030Z,999.4
2022-12-24T11:58:02.267Z,999.4
2022-12-24T11:59:18.509Z,999.4
2022-12-24T12:00:34.749Z,999.4
2022-12-24T12:01:50.017Z,999.4
2022-12-24T12:03:06.242Z,999.3
2022-12-24T12:04:22.480Z,999.4
2022-12-24T12:05:38.737Z,999.4
2022-12-24T12:06:54.959Z,999.4
2022-12-24T12:08:11.216Z,999.4
2022-12-24T12:09:27.440Z,999.4
2022-12-24T12:10:43.689Z,999.3
2022-12-24T12:11:59.920Z,999.4
2022-12-24T12:13:16.164Z,999.4
2022-12-24T12:14:32.397Z,999.3
2022-12-24T12:15:48.638Z,999.4
2022-12-24T12:17:04.891Z,999.4
2022-12-24T12:18:20.133Z,999.3
2022-12-24T12:19:36.387Z,999.3
2022-12-24T12:20:52.614Z,999.4
2022-12-24T12:22:08.852Z,999.4
2022-12-24T12:23:25.093Z,999.4
2022-12-24T12:24:40.358Z,999.4
2022-12-24T12:25:56.596Z,999.5
2022-12-24T12:27:12.828Z,999.5
2022-12-24T12:28:29.076Z,999.5
2022-12-24T12:29:45.310Z,999.4
2022-12-24T12:31:01.561Z,999.4
2022-12-24T12:32:17.804Z,999.4
2022-12-24T12:33:34.030Z,999.4
2022-12-24T12:34:50.268Z,999.5
2022-12-24T12:36:06.508Z,999.4
2022-12-24T12:37:22.757Z,999.4
2022-12-24T12:38:38.989Z,999.4
2022-12-24T12:39:55.228Z,999.5
2022-12-24T12:41:10.478Z,999.5
2022-12-24T12:42:26.727Z,999.5
2022-12-24T12:43:42.964Z,999.4
2022-12-24T12:44:59.199Z,999.5
2022-12-24T12:46:15.449Z,999.5
2022-12-24T12:47:31.676Z,999.6
2022-12-24T12:48:47.929Z,999.6
2022-12-24T12:50:04.165Z,999.6
2022-12-24T12:51:20.399Z,999.6
2022-12-24T12:52:36.639Z,999.6
2022-12-24T12:53:52.889Z,999.6
2022-12-24T12:55:09.127Z,999.6
2022-12-24T12:56:25.355Z,999.6
2022-12-24T12:57:40.610Z,999.6
2022-12-24T12:58:56.853Z,999.6
2022-12-24T13:00:13.090Z,999.7
2022-12-24T13:01:29.337Z,999.6
2022-12-24T13:02:45.570Z,999.6
2022-12-24T13:04:01.824Z,999.6
2022-12-24T13:05:18.052Z,999.6
2022-12-24T13:06:34.306Z,999.6
2022-12-24T13:07:50.529Z,999.6
2022-12-24T13:09:06.770Z,999.6
2022-12-24T13:10:23.007Z,999.6
2022-12-24T13:11:39.246Z,999.6
2022-12-24T13:12:55.487Z,999.7
2022-12-24T13:14:10.748Z,999.7
2022-12-24T13:15:26.980Z,999.7
2022-12-24T13:16:43.233Z,999.7
2022-12-24T13:17:59.476Z,999.6
2022-12-24T13:19:15.707Z,999.7
2022-12-24T13:20:31.950Z,999.6
2022-12-24T13:21:48.196Z,999.7
2022-12-24T13:23:04.427Z,999.7
2022-12-24T13:24:20.660Z,999.7
2022-12-24T13:25:36.900Z,999.7
2022-12-24T13:26:53.135Z,999.7
2022-12-24T13:28:09.376Z,999.7
2022-12-24T13:29:25.616Z,999.8
2022-12-24T13:30:40.878Z,999.8
2022-12-24T13:31:57.113Z,999.9
2022-12-24T13:33:13.368Z,999.9
2022-12-24T13:34:29.594Z,999.9
2022-12-24T13:35:45.836Z,1000
2022-12-24T13:37:02.078Z,1000
2022-12-24T13:38:18.324Z,1000
2022-12-24T13:39:34.565Z,1000.1
2022-12-24T13:40:50.795Z,1000.1
2022-12-24T13:42:07.042Z,1000.2
2022-12-24T13:43:23.276Z,1000.2
2022-12-24T13:44:39.512Z,1000.2
2022-12-24T13:45:55.749Z,1000.2
2022-12-24T13:47:11.016Z,1000.2
2022-12-24T13:48:27.244Z,1000.2
2022-12-24T13:49:43.485Z,1000.2
2022-12-24T13:50:59.729Z,1000.1
2022-12-24T13:52:15.964Z,1000.2
2022-12-24T13:53:32.208Z,1000.2
2022-12-24T13:54:48.449Z,1000.3
2022-12-24T13:56:04.686Z,1000.3
2022-12-24T13:57:20.929Z,1000.3
2022-12-24T13:58:37.169Z,1000.3
2022-12-24T13:59:53.419Z,1000.2
2022-12-24T14:01:09.644Z,1000.3
2022-12-24T14:02:25.898Z,1000.3
2022-12-24T14:03:42.264Z,1000.3
2022-12-24T14:04:58.490Z,1000.3
2022-12-24T14:06:14.731Z,1000.4
2022-12-24T14:07:30.972Z,1000.4
2022-12-24T14:08:47.207Z,1000.4
2022-12-24T14:10:03.448Z,1000.4
2022-12-24T14:11:19.690Z,1000.4
2022-12-24T14:12:35.927Z,1000.4
2022-12-24T14:13:52.176Z,1000.5
2022-12-24T14:15:08.422Z,1000.4
2022-12-24T14:16:24.650Z,1000.5
2022-12-24T14:17:40.890Z,1000.5
2022-12-24T14:18:57.127Z,1000.5
2022-12-24T14:20:12.390Z,1000.5
2022-12-24T14:21:28.630Z,1000.5
2022-12-24T14:22:44.872Z,1000.5
2022-12-24T14:24:01.099Z,1000.6
2022-12-24T14:25:17.343Z,1000.6
2022-12-24T14:26:33.582Z,1000.6
2022-12-24T14:27:49.834Z,1000.7
2022-12-24T14:29:06.061Z,1000.7
2022-12-24T14:30:22.300Z,1000.7
2022-12-24T14:31:38.539Z,1000.7
2022-12-24T14:32:54.798Z,1000.8
2022-12-24T14:34:11.028Z,1000.8
2022-12-24T14:35:27.269Z,1000.8
2022-12-24T14:36:42.517Z,1000.8
2022-12-24T14:37:58.766Z,1000.8
2022-12-24T14:39:14.995Z,1000.8
2022-12-24T14:40:31.246Z,1000.8
2022-12-24T14:41:47.474Z,1000.8
2022-12-24T14:43:03.714Z,1000.8
2022-12-24T14:44:19.968Z,1000.8
2022-12-24T14:45:36.212Z,1000.8
2022-12-24T14:46:52.436Z,1000.9
2022-12-24T14:48:08.689Z,1000.8
2022-12-24T14:49:24.923Z,1000.9
2022-12-24T14:50:41.169Z,1000.8
2022-12-24T14:51:57.402Z,1000.9
2022-12-24T14:53:12.664Z,1000.9
2022-12-24T14:54:28.894Z,1000.9
2022-12-24T14:55:45.135Z,1000.8
2022-12-24T14:57:01.380Z,1000.8
2022-12-24T14:58:17.621Z,1000.9
2022-12-24T14:59:33.853Z,1000.9
2022-12-24T15:00:50.093Z,1000.9
2022-12-24T15:02:06.347Z,1000.9
2022-12-24T15:03:22.570Z,1001
2022-12-24T15:04:38.822Z,1001
2022-12-24T15:05:55.049Z,1001
2022-12-24T15:07:11.294Z,1001
2022-12-24T15:08:27.545Z,1001
2022-12-24T15:09:42.786Z,1001
2022-12-24T15:10:59.031Z,1001
2022-12-24T15:12:15.273Z,1001.1
2022-12-24T15:13:31.519Z,1001.1
2022-12-24T15:14:47.750Z,1001.1
2022-12-24T15:16:04.000Z,1001.1
2022-12-24T15:17:20.228Z,1001.2
2022-12-24T15:18:36.483Z,1001.2
2022-12-24T15:19:52.706Z,1001.2
2022-12-24T15:21:08.948Z,1001.2
2022-12-24T15:22:25.191Z,1001.2
2022-12-24T15:23:41.443Z,1001.2
2022-12-24T15:24:57.673Z,1001.2
2022-12-24T15:26:14.037Z,1001.3
2022-12-24T15:27:30.276Z,1001.3
2022-12-24T15:28:46.522Z,1001.3
2022-12-24T15:30:02.754Z,1001.4
2022-12-24T15:31:18.995Z,1001.4
2022-12-24T15:32:35.227Z,1001.4
2022-12-24T15:33:51.474Z,1001.4
2022-12-24T15:35:07.769Z,1001.4
2022-12-24T15:36:24.011Z,1001.4
2022-12-24T15:37:40.244Z,1001.4
2022-12-24T15:38:56.494Z,1001.4
2022-12-24T15:40:12.788Z,1001.4
2022-12-24T15:41:29.082Z,1001.4
2022-12-24T15:42:44.390Z,1001.4
2022-12-24T15:44:00.685Z,1001.5
2022-12-24T15:45:16.971Z,1001.5
2022-12-24T15:46:33.273Z,1001.5
2022-12-24T15:47:49.559Z,1001.6
2022-12-24T15:49:05.858Z,1001.7
2022-12-24T15:50:22.156Z,1001.7
2022-12-24T15:51:38.440Z,1001.6
2022-12-24T15:52:54.745Z,1001.6
2022-12-24T15:54:11.037Z,1001.6
2022-12-24T15:55:27.333Z,1001.8
2022-12-24T15:56:43.627Z,1001.7
2022-12-24T15:57:59.917Z,1001.7
2022-12-24T15:59:15.236Z,1001.8
2022-12-24T16:00:31.530Z,1001.8
2022-12-24T16:01:47.809Z,1001.8
2022-12-24T16:03:04.104Z,1001.8
2022-12-24T16:04:20.413Z,1001.8
2022-12-24T16:05:36.692Z,1001.8
2022-12-24T16:06:52.996Z,1001.8
2022-12-24T16:08:09.276Z,1001.8
2022-12-24T16:09:25.588Z,1001.8
2022-12-24T16:10:41.870Z,1001.8
2022-12-24T16:11:58.176Z,1001.8
2022-12-24T16:13:14.451Z,1001.8
2022-12-24T16:14:30.756Z,1001.8
2022-12-24T16:15:46.061Z,1001.9
2022-12-24T16:17:02.350Z,1001.8
2022-12-24T16:18:18.645Z,1001.8
2022-12-24T16:19:34.944Z,1001.8
2022-12-24T16:20:51.234Z,1001.9